sensor_id;sensor_type;location;lat;lon;timestamp;P1;durP1;ratioP1;P2;durP2;ratioP2
43552;SDS011;29153;42.696;23.218;2023-05-21T00:01:40;10.28;;;6.20;;
43552;SDS011;29153;42.696;23.218;2023-05-21T00:04:08;9.73;;;5.70;;
43552;SDS011;29153;42.696;23.218;2023-05-21T00:06:37;12.00;;;5.85;;
43552;SDS011;29153;42.696;23.218;2023-05-21T00:09:05;9.48;;;5.90;;
43552;SDS011;29153;42.696;23.218;2023-05-21T00:11:32;10.63;;;6.17;;
43552;SDS011;29153;42.696;23.218;2023-05-21T00:14:00;10.10;;;5.80;;
43552;SDS011;29153;42.696;23.218;2023-05-21T00:16:27;10.90;;;6.08;;
43552;SDS011;29153;42.696;23.218;2023-05-21T00:18:55;11.68;;;5.83;;
43552;SDS011;29153;42.696;23.218;2023-05-21T00:21:22;10.00;;;6.08;;
43552;SDS011;29153;42.696;23.218;2023-05-21T00:23:56;9.55;;;5.90;;
43552;SDS011;29153;42.696;23.218;2023-05-21T00:26:21;10.38;;;5.42;;
43552;SDS011;29153;42.696;23.218;2023-05-21T00:28:51;9.95;;;5.70;;
43552;SDS011;29153;42.696;23.218;2023-05-21T00:31:19;10.38;;;6.17;;
43552;SDS011;29153;42.696;23.218;2023-05-21T00:33:46;10.45;;;5.65;;
43552;SDS011;29153;42.696;23.218;2023-05-21T00:36:14;11.90;;;6.03;;
43552;SDS011;29153;42.696;23.218;2023-05-21T00:38:42;9.15;;;5.55;;
43552;SDS011;29153;42.696;23.218;2023-05-21T00:41:10;9.73;;;5.62;;
43552;SDS011;29153;42.696;23.218;2023-05-21T00:43:38;10.15;;;5.45;;
43552;SDS011;29153;42.696;23.218;2023-05-21T00:46:06;11.35;;;5.47;;
43552;SDS011;29153;42.696;23.218;2023-05-21T00:48:36;9.18;;;5.40;;
43552;SDS011;29153;42.696;23.218;2023-05-21T00:51:05;10.05;;;5.80;;
43552;SDS011;29153;42.696;23.218;2023-05-21T00:53:33;12.07;;;5.60;;
43552;SDS011;29153;42.696;23.218;2023-05-21T00:56:01;10.28;;;4.85;;
43552;SDS011;29153;42.696;23.218;2023-05-21T00:58:29;9.65;;;5.72;;
43552;SDS011;29153;42.696;23.218;2023-05-21T01:00:59;10.18;;;5.80;;
43552;SDS011;29153;42.696;23.218;2023-05-21T01:03:28;9.03;;;5.30;;
43552;SDS011;29153;42.696;23.218;2023-05-21T01:05:58;10.90;;;5.58;;
43552;SDS011;29153;42.696;23.218;2023-05-21T01:08:25;9.88;;;5.90;;
43552;SDS011;29153;42.696;23.218;2023-05-21T01:10:53;10.90;;;6.05;;
43552;SDS011;29153;42.696;23.218;2023-05-21T01:15:50;13.93;;;5.62;;
43552;SDS011;29153;42.696;23.218;2023-05-21T01:18:20;11.33;;;5.70;;
43552;SDS011;29153;42.696;23.218;2023-05-21T01:20:48;9.35;;;5.30;;
43552;SDS011;29153;42.696;23.218;2023-05-21T01:23:16;11.73;;;6.10;;
43552;SDS011;29153;42.696;23.218;2023-05-21T01:25:45;10.70;;;5.70;;
43552;SDS011;29153;42.696;23.218;2023-05-21T01:28:13;9.83;;;5.85;;
43552;SDS011;29153;42.696;23.218;2023-05-21T01:30:41;8.03;;;4.92;;
43552;SDS011;29153;42.696;23.218;2023-05-21T01:36:11;8.33;;;5.53;;
43552;SDS011;29153;42.696;23.218;2023-05-21T01:38:52;11.40;;;5.65;;
43552;SDS011;29153;42.696;23.218;2023-05-21T01:41:16;11.55;;;5.80;;
43552;SDS011;29153;42.696;23.218;2023-05-21T01:43:45;12.20;;;5.90;;
43552;SDS011;29153;42.696;23.218;2023-05-21T01:46:15;10.80;;;5.65;;
43552;SDS011;29153;42.696;23.218;2023-05-21T01:48:44;12.13;;;5.80;;
43552;SDS011;29153;42.696;23.218;2023-05-21T01:51:12;11.22;;;6.37;;
43552;SDS011;29153;42.696;23.218;2023-05-21T01:53:41;10.58;;;5.55;;
43552;SDS011;29153;42.696;23.218;2023-05-21T01:56:08;11.00;;;6.00;;
43552;SDS011;29153;42.696;23.218;2023-05-21T01:58:37;9.98;;;5.53;;
43552;SDS011;29153;42.696;23.218;2023-05-21T02:01:04;10.30;;;6.40;;
43552;SDS011;29153;42.696;23.218;2023-05-21T02:06:00;10.53;;;5.62;;
43552;SDS011;29153;42.696;23.218;2023-05-21T02:08:27;9.08;;;5.12;;
43552;SDS011;29153;42.696;23.218;2023-05-21T02:10:55;10.03;;;5.42;;
43552;SDS011;29153;42.696;23.218;2023-05-21T02:13:23;12.18;;;5.92;;
43552;SDS011;29153;42.696;23.218;2023-05-21T02:15:51;9.20;;;5.42;;
43552;SDS011;29153;42.696;23.218;2023-05-21T02:18:19;10.23;;;5.67;;
43552;SDS011;29153;42.696;23.218;2023-05-21T02:20:48;10.90;;;6.03;;
43552;SDS011;29153;42.696;23.218;2023-05-21T02:23:16;9.23;;;5.15;;
43552;SDS011;29153;42.696;23.218;2023-05-21T02:25:43;9.58;;;5.97;;
43552;SDS011;29153;42.696;23.218;2023-05-21T02:28:11;11.15;;;5.53;;
43552;SDS011;29153;42.696;23.218;2023-05-21T02:30:38;10.30;;;5.15;;
43552;SDS011;29153;42.696;23.218;2023-05-21T02:33:06;9.55;;;4.95;;
43552;SDS011;29153;42.696;23.218;2023-05-21T02:35:33;10.88;;;5.72;;
43552;SDS011;29153;42.696;23.218;2023-05-21T02:38:00;11.48;;;5.65;;
43552;SDS011;29153;42.696;23.218;2023-05-21T02:40:28;10.70;;;5.37;;
43552;SDS011;29153;42.696;23.218;2023-05-21T02:42:57;11.68;;;5.40;;
43552;SDS011;29153;42.696;23.218;2023-05-21T02:45:25;10.53;;;5.25;;
43552;SDS011;29153;42.696;23.218;2023-05-21T02:47:54;12.10;;;5.17;;
43552;SDS011;29153;42.696;23.218;2023-05-21T02:50:21;10.03;;;5.42;;
43552;SDS011;29153;42.696;23.218;2023-05-21T02:52:49;9.23;;;5.12;;
43552;SDS011;29153;42.696;23.218;2023-05-21T02:55:16;11.73;;;5.40;;
43552;SDS011;29153;42.696;23.218;2023-05-21T02:57:44;15.80;;;6.22;;
43552;SDS011;29153;42.696;23.218;2023-05-21T03:00:12;9.45;;;5.17;;
43552;SDS011;29153;42.696;23.218;2023-05-21T03:02:41;10.38;;;5.67;;
43552;SDS011;29153;42.696;23.218;2023-05-21T03:05:08;8.78;;;4.92;;
43552;SDS011;29153;42.696;23.218;2023-05-21T03:07:36;9.30;;;5.35;;
43552;SDS011;29153;42.696;23.218;2023-05-21T03:10:03;10.35;;;5.45;;
43552;SDS011;29153;42.696;23.218;2023-05-21T03:12:31;10.23;;;5.03;;
43552;SDS011;29153;42.696;23.218;2023-05-21T03:14:59;9.90;;;5.55;;
43552;SDS011;29153;42.696;23.218;2023-05-21T03:17:26;12.82;;;6.05;;
43552;SDS011;29153;42.696;23.218;2023-05-21T03:19:53;10.78;;;5.60;;
43552;SDS011;29153;42.696;23.218;2023-05-21T03:22:21;9.08;;;5.00;;
43552;SDS011;29153;42.696;23.218;2023-05-21T03:24:48;8.83;;;5.10;;
43552;SDS011;29153;42.696;23.218;2023-05-21T03:27:17;10.72;;;5.25;;
43552;SDS011;29153;42.696;23.218;2023-05-21T03:29:45;9.95;;;5.25;;
43552;SDS011;29153;42.696;23.218;2023-05-21T03:32:13;11.28;;;5.80;;
43552;SDS011;29153;42.696;23.218;2023-05-21T03:34:40;12.05;;;5.35;;
43552;SDS011;29153;42.696;23.218;2023-05-21T03:37:08;9.38;;;5.22;;
43552;SDS011;29153;42.696;23.218;2023-05-21T03:39:35;10.23;;;5.42;;
43552;SDS011;29153;42.696;23.218;2023-05-21T03:42:03;12.23;;;5.45;;
43552;SDS011;29153;42.696;23.218;2023-05-21T03:44:30;10.78;;;5.78;;
43552;SDS011;29153;42.696;23.218;2023-05-21T03:46:58;8.85;;;5.30;;
43552;SDS011;29153;42.696;23.218;2023-05-21T03:49:25;11.40;;;6.80;;
43552;SDS011;29153;42.696;23.218;2023-05-21T03:51:53;11.57;;;6.17;;
43552;SDS011;29153;42.696;23.218;2023-05-21T03:54:20;10.20;;;6.10;;
43552;SDS011;29153;42.696;23.218;2023-05-21T03:56:48;10.05;;;6.00;;
43552;SDS011;29153;42.696;23.218;2023-05-21T03:59:15;12.10;;;6.35;;
43552;SDS011;29153;42.696;23.218;2023-05-21T04:01:43;9.45;;;5.70;;
43552;SDS011;29153;42.696;23.218;2023-05-21T04:04:10;11.70;;;5.58;;
43552;SDS011;29153;42.696;23.218;2023-05-21T04:06:38;9.90;;;5.95;;
43552;SDS011;29153;42.696;23.218;2023-05-21T04:09:06;9.58;;;5.83;;
43552;SDS011;29153;42.696;23.218;2023-05-21T04:11:34;12.85;;;5.65;;
43552;SDS011;29153;42.696;23.218;2023-05-21T04:14:01;9.90;;;5.47;;
43552;SDS011;29153;42.696;23.218;2023-05-21T04:16:29;9.55;;;5.67;;
43552;SDS011;29153;42.696;23.218;2023-05-21T04:18:58;10.85;;;5.65;;
43552;SDS011;29153;42.696;23.218;2023-05-21T04:21:25;12.07;;;6.15;;
43552;SDS011;29153;42.696;23.218;2023-05-21T04:23:53;8.43;;;5.42;;
43552;SDS011;29153;42.696;23.218;2023-05-21T04:26:22;9.15;;;6.05;;
43552;SDS011;29153;42.696;23.218;2023-05-21T04:28:50;9.08;;;5.25;;
43552;SDS011;29153;42.696;23.218;2023-05-21T04:31:18;10.80;;;5.70;;
43552;SDS011;29153;42.696;23.218;2023-05-21T04:33:46;9.45;;;5.80;;
43552;SDS011;29153;42.696;23.218;2023-05-21T04:36:13;10.65;;;5.17;;
43552;SDS011;29153;42.696;23.218;2023-05-21T04:38:41;9.60;;;5.40;;
43552;SDS011;29153;42.696;23.218;2023-05-21T04:41:09;10.35;;;5.50;;
43552;SDS011;29153;42.696;23.218;2023-05-21T04:43:37;9.53;;;5.10;;
43552;SDS011;29153;42.696;23.218;2023-05-21T04:46:07;9.33;;;5.55;;
43552;SDS011;29153;42.696;23.218;2023-05-21T04:48:34;8.93;;;5.35;;
43552;SDS011;29153;42.696;23.218;2023-05-21T04:51:01;10.48;;;5.85;;
43552;SDS011;29153;42.696;23.218;2023-05-21T04:53:31;8.55;;;4.87;;
43552;SDS011;29153;42.696;23.218;2023-05-21T04:56:00;8.93;;;5.50;;
43552;SDS011;29153;42.696;23.218;2023-05-21T04:58:28;8.48;;;5.35;;
43552;SDS011;29153;42.696;23.218;2023-05-21T05:00:57;8.93;;;5.47;;
43552;SDS011;29153;42.696;23.218;2023-05-21T05:03:26;8.53;;;5.25;;
43552;SDS011;29153;42.696;23.218;2023-05-21T05:05:54;9.65;;;5.53;;
43552;SDS011;29153;42.696;23.218;2023-05-21T05:08:22;8.35;;;4.65;;
43552;SDS011;29153;42.696;23.218;2023-05-21T05:10:49;9.20;;;5.75;;
43552;SDS011;29153;42.696;23.218;2023-05-21T05:13:17;10.90;;;5.55;;
43552;SDS011;29153;42.696;23.218;2023-05-21T05:15:44;9.43;;;5.47;;
43552;SDS011;29153;42.696;23.218;2023-05-21T05:18:12;11.43;;;5.50;;
43552;SDS011;29153;42.696;23.218;2023-05-21T05:20:39;9.28;;;5.25;;
43552;SDS011;29153;42.696;23.218;2023-05-21T05:23:07;8.53;;;5.20;;
43552;SDS011;29153;42.696;23.218;2023-05-21T05:25:34;9.35;;;5.55;;
43552;SDS011;29153;42.696;23.218;2023-05-21T05:28:01;10.50;;;5.97;;
43552;SDS011;29153;42.696;23.218;2023-05-21T05:30:29;11.50;;;6.67;;
43552;SDS011;29153;42.696;23.218;2023-05-21T05:32:56;11.85;;;6.37;;
43552;SDS011;29153;42.696;23.218;2023-05-21T05:35:24;13.72;;;6.85;;
43552;SDS011;29153;42.696;23.218;2023-05-21T05:37:51;11.80;;;6.10;;
43552;SDS011;29153;42.696;23.218;2023-05-21T05:40:19;13.20;;;6.75;;
43552;SDS011;29153;42.696;23.218;2023-05-21T05:42:46;11.57;;;6.35;;
43552;SDS011;29153;42.696;23.218;2023-05-21T05:45:14;11.08;;;6.58;;
43552;SDS011;29153;42.696;23.218;2023-05-21T05:47:41;10.25;;;6.30;;
43552;SDS011;29153;42.696;23.218;2023-05-21T05:50:10;11.15;;;6.60;;
43552;SDS011;29153;42.696;23.218;2023-05-21T05:52:38;11.48;;;6.22;;
43552;SDS011;29153;42.696;23.218;2023-05-21T05:55:05;12.10;;;6.70;;
43552;SDS011;29153;42.696;23.218;2023-05-21T05:57:33;12.35;;;6.25;;
43552;SDS011;29153;42.696;23.218;2023-05-21T06:00:01;10.00;;;6.10;;
43552;SDS011;29153;42.696;23.218;2023-05-21T06:02:30;11.12;;;5.95;;
43552;SDS011;29153;42.696;23.218;2023-05-21T06:04:57;8.88;;;5.33;;
43552;SDS011;29153;42.696;23.218;2023-05-21T06:07:24;12.95;;;5.83;;
43552;SDS011;29153;42.696;23.218;2023-05-21T06:09:52;10.03;;;5.85;;
43552;SDS011;29153;42.696;23.218;2023-05-21T06:12:19;14.73;;;5.85;;
43552;SDS011;29153;42.696;23.218;2023-05-21T06:14:47;13.08;;;6.05;;
43552;SDS011;29153;42.696;23.218;2023-05-21T06:19:42;10.70;;;5.95;;
43552;SDS011;29153;42.696;23.218;2023-05-21T06:24:43;9.93;;;5.90;;
43552;SDS011;29153;42.696;23.218;2023-05-21T06:27:10;10.23;;;5.95;;
43552;SDS011;29153;42.696;23.218;2023-05-21T06:29:38;9.50;;;5.45;;
43552;SDS011;29153;42.696;23.218;2023-05-21T06:32:06;8.00;;;5.25;;
43552;SDS011;29153;42.696;23.218;2023-05-21T06:34:34;8.70;;;4.47;;
43552;SDS011;29153;42.696;23.218;2023-05-21T06:37:01;8.23;;;4.78;;
43552;SDS011;29153;42.696;23.218;2023-05-21T06:39:29;9.08;;;4.58;;
43552;SDS011;29153;42.696;23.218;2023-05-21T06:41:56;12.33;;;5.08;;
43552;SDS011;29153;42.696;23.218;2023-05-21T06:44:23;11.18;;;4.85;;
43552;SDS011;29153;42.696;23.218;2023-05-21T06:46:51;11.97;;;4.72;;
43552;SDS011;29153;42.696;23.218;2023-05-21T06:49:18;10.70;;;4.95;;
43552;SDS011;29153;42.696;23.218;2023-05-21T06:51:46;16.37;;;5.03;;
43552;SDS011;29153;42.696;23.218;2023-05-21T06:54:13;10.45;;;4.95;;
43552;SDS011;29153;42.696;23.218;2023-05-21T06:56:41;10.65;;;5.25;;
43552;SDS011;29153;42.696;23.218;2023-05-21T06:59:08;11.15;;;5.87;;
43552;SDS011;29153;42.696;23.218;2023-05-21T07:01:36;13.50;;;5.40;;
43552;SDS011;29153;42.696;23.218;2023-05-21T07:04:05;8.75;;;5.47;;
43552;SDS011;29153;42.696;23.218;2023-05-21T07:06:33;8.60;;;5.22;;
43552;SDS011;29153;42.696;23.218;2023-05-21T07:09:00;8.50;;;4.75;;
43552;SDS011;29153;42.696;23.218;2023-05-21T07:11:28;10.70;;;5.33;;
43552;SDS011;29153;42.696;23.218;2023-05-21T07:13:56;8.98;;;4.55;;
43552;SDS011;29153;42.696;23.218;2023-05-21T07:16:28;11.00;;;4.47;;
43552;SDS011;29153;42.696;23.218;2023-05-21T07:18:55;9.93;;;4.22;;
43552;SDS011;29153;42.696;23.218;2023-05-21T07:21:23;7.35;;;3.87;;
43552;SDS011;29153;42.696;23.218;2023-05-21T07:23:50;7.00;;;4.22;;
43552;SDS011;29153;42.696;23.218;2023-05-21T07:26:18;6.87;;;4.33;;
43552;SDS011;29153;42.696;23.218;2023-05-21T07:28:45;7.60;;;3.95;;
43552;SDS011;29153;42.696;23.218;2023-05-21T07:31:13;9.08;;;3.92;;
43552;SDS011;29153;42.696;23.218;2023-05-21T07:33:40;9.55;;;4.10;;
43552;SDS011;29153;42.696;23.218;2023-05-21T07:36:08;8.58;;;3.85;;
43552;SDS011;29153;42.696;23.218;2023-05-21T07:38:35;10.25;;;4.05;;
43552;SDS011;29153;42.696;23.218;2023-05-21T07:41:04;8.03;;;3.70;;
43552;SDS011;29153;42.696;23.218;2023-05-21T07:43:32;7.58;;;3.27;;
43552;SDS011;29153;42.696;23.218;2023-05-21T07:45:59;6.50;;;3.87;;
43552;SDS011;29153;42.696;23.218;2023-05-21T07:48:27;8.73;;;3.87;;
43552;SDS011;29153;42.696;23.218;2023-05-21T07:50:55;8.03;;;4.10;;
43552;SDS011;29153;42.696;23.218;2023-05-21T07:53:24;7.72;;;3.80;;
43552;SDS011;29153;42.696;23.218;2023-05-21T07:55:52;8.35;;;4.53;;
43552;SDS011;29153;42.696;23.218;2023-05-21T07:58:19;7.37;;;3.25;;
43552;SDS011;29153;42.696;23.218;2023-05-21T08:00:47;7.42;;;3.05;;
43552;SDS011;29153;42.696;23.218;2023-05-21T08:03:15;9.33;;;3.80;;
43552;SDS011;29153;42.696;23.218;2023-05-21T08:05:43;14.43;;;3.90;;
43552;SDS011;29153;42.696;23.218;2023-05-21T08:08:14;9.18;;;3.65;;
43552;SDS011;29153;42.696;23.218;2023-05-21T08:10:42;6.37;;;3.58;;
43552;SDS011;29153;42.696;23.218;2023-05-21T08:13:10;10.35;;;3.55;;
43552;SDS011;29153;42.696;23.218;2023-05-21T08:15:38;8.28;;;3.77;;
43552;SDS011;29153;42.696;23.218;2023-05-21T08:18:05;12.13;;;4.47;;
43552;SDS011;29153;42.696;23.218;2023-05-21T08:20:33;8.18;;;4.12;;
43552;SDS011;29153;42.696;23.218;2023-05-21T08:23:01;10.88;;;4.15;;
43552;SDS011;29153;42.696;23.218;2023-05-21T08:25:28;8.25;;;3.50;;
43552;SDS011;29153;42.696;23.218;2023-05-21T08:27:56;8.30;;;3.22;;
43552;SDS011;29153;42.696;23.218;2023-05-21T08:30:23;5.45;;;3.00;;
43552;SDS011;29153;42.696;23.218;2023-05-21T08:32:51;12.13;;;3.12;;
43552;SDS011;29153;42.696;23.218;2023-05-21T08:35:19;13.32;;;2.87;;
43552;SDS011;29153;42.696;23.218;2023-05-21T08:37:47;6.22;;;3.02;;
43552;SDS011;29153;42.696;23.218;2023-05-21T08:40:14;6.92;;;2.75;;
43552;SDS011;29153;42.696;23.218;2023-05-21T08:42:42;5.85;;;2.25;;
43552;SDS011;29153;42.696;23.218;2023-05-21T08:45:12;8.60;;;2.45;;
43552;SDS011;29153;42.696;23.218;2023-05-21T08:47:41;5.55;;;2.35;;
43552;SDS011;29153;42.696;23.218;2023-05-21T08:50:14;7.20;;;2.45;;
43552;SDS011;29153;42.696;23.218;2023-05-21T08:52:45;7.90;;;2.55;;
43552;SDS011;29153;42.696;23.218;2023-05-21T08:55:13;5.78;;;1.90;;
43552;SDS011;29153;42.696;23.218;2023-05-21T08:57:43;6.17;;;2.25;;
43552;SDS011;29153;42.696;23.218;2023-05-21T09:00:10;11.30;;;3.50;;
43552;SDS011;29153;42.696;23.218;2023-05-21T09:02:38;6.33;;;2.40;;
43552;SDS011;29153;42.696;23.218;2023-05-21T09:05:07;6.87;;;3.37;;
43552;SDS011;29153;42.696;23.218;2023-05-21T09:07:43;5.55;;;3.00;;
43552;SDS011;29153;42.696;23.218;2023-05-21T09:10:15;8.95;;;2.75;;
43552;SDS011;29153;42.696;23.218;2023-05-21T09:12:46;6.03;;;2.70;;
43552;SDS011;29153;42.696;23.218;2023-05-21T09:15:13;4.62;;;2.15;;
43552;SDS011;29153;42.696;23.218;2023-05-21T09:17:41;6.40;;;2.30;;
43552;SDS011;29153;42.696;23.218;2023-05-21T09:20:10;7.45;;;2.87;;
43552;SDS011;29153;42.696;23.218;2023-05-21T09:22:44;6.80;;;3.05;;
43552;SDS011;29153;42.696;23.218;2023-05-21T09:25:19;9.25;;;2.70;;
43552;SDS011;29153;42.696;23.218;2023-05-21T09:27:43;5.85;;;2.58;;
43552;SDS011;29153;42.696;23.218;2023-05-21T09:30:12;5.87;;;2.72;;
43552;SDS011;29153;42.696;23.218;2023-05-21T09:32:41;6.20;;;2.85;;
43552;SDS011;29153;42.696;23.218;2023-05-21T09:37:42;5.42;;;2.52;;
43552;SDS011;29153;42.696;23.218;2023-05-21T09:40:14;8.28;;;2.95;;
43552;SDS011;29153;42.696;23.218;2023-05-21T09:42:43;8.08;;;2.70;;
43552;SDS011;29153;42.696;23.218;2023-05-21T09:45:12;7.15;;;3.10;;
43552;SDS011;29153;42.696;23.218;2023-05-21T09:47:49;4.78;;;2.47;;
43552;SDS011;29153;42.696;23.218;2023-05-21T09:50:24;6.35;;;2.55;;
43552;SDS011;29153;42.696;23.218;2023-05-21T09:52:53;4.95;;;2.60;;
43552;SDS011;29153;42.696;23.218;2023-05-21T09:55:23;6.03;;;2.45;;
43552;SDS011;29153;42.696;23.218;2023-05-21T09:57:52;8.45;;;2.37;;
43552;SDS011;29153;42.696;23.218;2023-05-21T10:02:48;5.17;;;2.05;;
43552;SDS011;29153;42.696;23.218;2023-05-21T10:05:17;9.20;;;3.00;;
43552;SDS011;29153;42.696;23.218;2023-05-21T10:07:48;4.55;;;2.42;;
43552;SDS011;29153;42.696;23.218;2023-05-21T10:10:19;4.58;;;2.35;;
43552;SDS011;29153;42.696;23.218;2023-05-21T10:12:50;4.90;;;2.17;;
43552;SDS011;29153;42.696;23.218;2023-05-21T10:15:19;9.08;;;2.62;;
43552;SDS011;29153;42.696;23.218;2023-05-21T10:17:48;5.50;;;2.25;;
43552;SDS011;29153;42.696;23.218;2023-05-21T10:20:18;9.00;;;2.77;;
43552;SDS011;29153;42.696;23.218;2023-05-21T10:22:46;6.17;;;2.55;;
43552;SDS011;29153;42.696;23.218;2023-05-21T10:25:15;6.10;;;2.05;;
43552;SDS011;29153;42.696;23.218;2023-05-21T10:27:44;6.70;;;2.37;;
43552;SDS011;29153;42.696;23.218;2023-05-21T10:30:12;5.67;;;2.42;;
43552;SDS011;29153;42.696;23.218;2023-05-21T10:32:40;6.53;;;2.90;;
43552;SDS011;29153;42.696;23.218;2023-05-21T10:35:09;5.08;;;2.22;;
43552;SDS011;29153;42.696;23.218;2023-05-21T10:37:39;7.35;;;2.45;;
43552;SDS011;29153;42.696;23.218;2023-05-21T10:40:09;11.30;;;3.12;;
43552;SDS011;29153;42.696;23.218;2023-05-21T10:51:25;8.18;;;2.33;;
43552;SDS011;29153;42.696;23.218;2023-05-21T10:56:53;6.85;;;2.72;;
43552;SDS011;29153;42.696;23.218;2023-05-21T10:59:42;8.88;;;2.98;;
43552;SDS011;29153;42.696;23.218;2023-05-21T11:02:13;13.43;;;3.80;;
43552;SDS011;29153;42.696;23.218;2023-05-21T11:04:43;7.30;;;3.40;;
43552;SDS011;29153;42.696;23.218;2023-05-21T11:07:14;9.40;;;3.22;;
43552;SDS011;29153;42.696;23.218;2023-05-21T11:09:43;7.00;;;2.60;;
43552;SDS011;29153;42.696;23.218;2023-05-21T11:12:12;6.62;;;2.92;;
43552;SDS011;29153;42.696;23.218;2023-05-21T11:14:45;7.55;;;2.72;;
43552;SDS011;29153;42.696;23.218;2023-05-21T11:17:35;7.00;;;2.62;;
43552;SDS011;29153;42.696;23.218;2023-05-21T11:20:11;5.42;;;2.75;;
43552;SDS011;29153;42.696;23.218;2023-05-21T11:22:39;8.08;;;3.20;;
43552;SDS011;29153;42.696;23.218;2023-05-21T11:25:07;7.03;;;3.70;;
43552;SDS011;29153;42.696;23.218;2023-05-21T11:27:40;8.75;;;3.33;;
43552;SDS011;29153;42.696;23.218;2023-05-21T11:30:09;7.83;;;3.50;;
43552;SDS011;29153;42.696;23.218;2023-05-21T11:32:38;5.72;;;3.22;;
43552;SDS011;29153;42.696;23.218;2023-05-21T11:35:07;6.15;;;2.92;;
43552;SDS011;29153;42.696;23.218;2023-05-21T11:37:38;4.80;;;2.50;;
43552;SDS011;29153;42.696;23.218;2023-05-21T11:40:16;9.45;;;3.33;;
43552;SDS011;29153;42.696;23.218;2023-05-21T11:42:51;10.13;;;3.35;;
43552;SDS011;29153;42.696;23.218;2023-05-21T11:45:21;8.95;;;3.08;;
43552;SDS011;29153;42.696;23.218;2023-05-21T11:47:50;5.55;;;2.95;;
43552;SDS011;29153;42.696;23.218;2023-05-21T11:50:18;5.92;;;3.22;;
43552;SDS011;29153;42.696;23.218;2023-05-21T11:52:45;10.18;;;3.47;;
43552;SDS011;29153;42.696;23.218;2023-05-21T11:55:14;7.45;;;3.08;;
43552;SDS011;29153;42.696;23.218;2023-05-21T11:57:43;12.88;;;4.72;;
43552;SDS011;29153;42.696;23.218;2023-05-21T12:00:13;11.70;;;4.97;;
43552;SDS011;29153;42.696;23.218;2023-05-21T12:02:45;9.58;;;4.33;;
43552;SDS011;29153;42.696;23.218;2023-05-21T12:05:13;7.35;;;3.42;;
43552;SDS011;29153;42.696;23.218;2023-05-21T12:07:41;11.28;;;4.20;;
43552;SDS011;29153;42.696;23.218;2023-05-21T12:10:19;12.95;;;3.90;;
43552;SDS011;29153;42.696;23.218;2023-05-21T12:12:48;8.88;;;4.35;;
43552;SDS011;29153;42.696;23.218;2023-05-21T12:15:16;9.20;;;4.25;;
43552;SDS011;29153;42.696;23.218;2023-05-21T12:17:48;8.65;;;3.42;;
43552;SDS011;29153;42.696;23.218;2023-05-21T12:20:16;6.92;;;2.87;;
43552;SDS011;29153;42.696;23.218;2023-05-21T12:22:44;11.22;;;3.30;;
43552;SDS011;29153;42.696;23.218;2023-05-21T12:25:13;8.25;;;3.47;;
43552;SDS011;29153;42.696;23.218;2023-05-21T12:27:44;8.13;;;4.17;;
43552;SDS011;29153;42.696;23.218;2023-05-21T12:30:12;7.28;;;3.70;;
43552;SDS011;29153;42.696;23.218;2023-05-21T12:32:41;6.65;;;3.45;;
43552;SDS011;29153;42.696;23.218;2023-05-21T12:35:09;6.50;;;3.33;;
43552;SDS011;29153;42.696;23.218;2023-05-21T12:37:49;12.30;;;3.12;;
43552;SDS011;29153;42.696;23.218;2023-05-21T12:40:17;9.63;;;4.22;;
43552;SDS011;29153;42.696;23.218;2023-05-21T12:42:46;7.42;;;3.92;;
43552;SDS011;29153;42.696;23.218;2023-05-21T12:45:16;9.68;;;3.80;;
43552;SDS011;29153;42.696;23.218;2023-05-21T12:47:48;13.13;;;4.10;;
43552;SDS011;29153;42.696;23.218;2023-05-21T12:50:18;7.50;;;3.52;;
43552;SDS011;29153;42.696;23.218;2023-05-21T12:52:47;9.55;;;3.42;;
43552;SDS011;29153;42.696;23.218;2023-05-21T12:55:14;8.60;;;3.33;;
43552;SDS011;29153;42.696;23.218;2023-05-21T12:57:43;9.80;;;4.55;;
43552;SDS011;29153;42.696;23.218;2023-05-21T13:00:11;8.53;;;4.70;;
43552;SDS011;29153;42.696;23.218;2023-05-21T13:02:39;11.50;;;4.22;;
43552;SDS011;29153;42.696;23.218;2023-05-21T13:05:08;10.28;;;4.35;;
43552;SDS011;29153;42.696;23.218;2023-05-21T13:07:38;8.83;;;4.67;;
43552;SDS011;29153;42.696;23.218;2023-05-21T13:10:06;12.15;;;4.58;;
43552;SDS011;29153;42.696;23.218;2023-05-21T13:17:29;15.45;;;6.33;;
43552;SDS011;29153;42.696;23.218;2023-05-21T13:20:04;10.65;;;5.03;;
43552;SDS011;29153;42.696;23.218;2023-05-21T13:22:39;12.30;;;5.05;;
43552;SDS011;29153;42.696;23.218;2023-05-21T13:25:10;11.48;;;5.37;;
43552;SDS011;29153;42.696;23.218;2023-05-21T13:27:40;9.38;;;5.53;;
43552;SDS011;29153;42.696;23.218;2023-05-21T13:30:08;11.03;;;4.97;;
43552;SDS011;29153;42.696;23.218;2023-05-21T13:32:37;8.50;;;4.92;;
43552;SDS011;29153;42.696;23.218;2023-05-21T13:35:05;16.42;;;4.85;;
43552;SDS011;29153;42.696;23.218;2023-05-21T13:37:34;9.20;;;5.72;;
43552;SDS011;29153;42.696;23.218;2023-05-21T13:40:02;9.18;;;6.37;;
43552;SDS011;29153;42.696;23.218;2023-05-21T13:42:31;11.90;;;6.22;;
43552;SDS011;29153;42.696;23.218;2023-05-21T13:44:59;7.00;;;3.75;;
43552;SDS011;29153;42.696;23.218;2023-05-21T13:47:26;9.33;;;4.05;;
43552;SDS011;29153;42.696;23.218;2023-05-21T13:49:54;9.70;;;3.87;;
43552;SDS011;29153;42.696;23.218;2023-05-21T13:52:21;7.80;;;3.50;;
43552;SDS011;29153;42.696;23.218;2023-05-21T13:54:49;7.87;;;3.45;;
43552;SDS011;29153;42.696;23.218;2023-05-21T13:57:16;9.55;;;3.72;;
43552;SDS011;29153;42.696;23.218;2023-05-21T13:59:44;7.15;;;3.67;;
43552;SDS011;29153;42.696;23.218;2023-05-21T14:02:11;8.73;;;4.12;;
43552;SDS011;29153;42.696;23.218;2023-05-21T14:04:39;9.33;;;3.45;;
43552;SDS011;29153;42.696;23.218;2023-05-21T14:07:06;7.58;;;3.62;;
43552;SDS011;29153;42.696;23.218;2023-05-21T14:09:36;5.95;;;3.12;;
43552;SDS011;29153;42.696;23.218;2023-05-21T14:12:04;9.13;;;3.77;;
43552;SDS011;29153;42.696;23.218;2023-05-21T14:14:32;6.60;;;3.30;;
43552;SDS011;29153;42.696;23.218;2023-05-21T14:16:59;7.42;;;3.40;;
43552;SDS011;29153;42.696;23.218;2023-05-21T14:19:27;7.20;;;3.25;;
43552;SDS011;29153;42.696;23.218;2023-05-21T14:21:54;6.47;;;3.98;;
43552;SDS011;29153;42.696;23.218;2023-05-21T14:24:23;6.95;;;3.40;;
43552;SDS011;29153;42.696;23.218;2023-05-21T14:26:51;7.42;;;3.80;;
43552;SDS011;29153;42.696;23.218;2023-05-21T14:29:18;5.70;;;3.83;;
43552;SDS011;29153;42.696;23.218;2023-05-21T14:31:46;10.05;;;3.50;;
43552;SDS011;29153;42.696;23.218;2023-05-21T14:34:13;9.03;;;3.25;;
43552;SDS011;29153;42.696;23.218;2023-05-21T14:36:41;8.28;;;3.45;;
43552;SDS011;29153;42.696;23.218;2023-05-21T14:39:08;5.70;;;2.92;;
43552;SDS011;29153;42.696;23.218;2023-05-21T14:41:37;10.43;;;4.50;;
43552;SDS011;29153;42.696;23.218;2023-05-21T14:44:05;7.05;;;3.83;;
43552;SDS011;29153;42.696;23.218;2023-05-21T14:46:32;9.08;;;4.25;;
43552;SDS011;29153;42.696;23.218;2023-05-21T14:49:01;7.58;;;3.70;;
43552;SDS011;29153;42.696;23.218;2023-05-21T14:51:28;7.67;;;3.52;;
43552;SDS011;29153;42.696;23.218;2023-05-21T14:53:56;10.03;;;3.45;;
43552;SDS011;29153;42.696;23.218;2023-05-21T14:56:23;21.25;;;3.92;;
43552;SDS011;29153;42.696;23.218;2023-05-21T14:58:52;10.98;;;3.90;;
43552;SDS011;29153;42.696;23.218;2023-05-21T15:01:20;7.83;;;4.03;;
43552;SDS011;29153;42.696;23.218;2023-05-21T15:03:47;9.08;;;3.05;;
43552;SDS011;29153;42.696;23.218;2023-05-21T15:06:15;7.55;;;4.05;;
43552;SDS011;29153;42.696;23.218;2023-05-21T15:08:42;10.60;;;3.83;;
43552;SDS011;29153;42.696;23.218;2023-05-21T15:11:10;8.43;;;4.15;;